sensor_id;sensor_type;location;lat;lon;timestamp;P1;durP1;ratioP1;P2;durP2;ratioP2
45792;SDS011;31495;42.740;22.908;2023-04-09T00:00:05;26.63;;;15.98;;
45792;SDS011;31495;42.740;22.908;2023-04-09T00:01:07;27.33;;;17.08;;
45792;SDS011;31495;42.740;22.908;2023-04-09T00:02:08;29.95;;;16.75;;
45792;SDS011;31495;42.740;22.908;2023-04-09T00:03:08;30.88;;;18.27;;
45792;SDS011;31495;42.740;22.908;2023-04-09T00:04:07;40.15;;;23.92;;
45792;SDS011;31495;42.740;22.908;2023-04-09T00:05:07;32.45;;;20.15;;
45792;SDS011;31495;42.740;22.908;2023-04-09T00:06:07;34.53;;;20.25;;
45792;SDS011;31495;42.740;22.908;2023-04-09T00:07:06;35.47;;;19.73;;
45792;SDS011;31495;42.740;22.908;2023-04-09T00:08:06;30.92;;;18.70;;
45792;SDS011;31495;42.740;22.908;2023-04-09T00:09:06;32.83;;;19.60;;
45792;SDS011;31495;42.740;22.908;2023-04-09T00:10:05;33.65;;;20.83;;
45792;SDS011;31495;42.740;22.908;2023-04-09T00:11:05;34.92;;;20.60;;
45792;SDS011;31495;42.740;22.908;2023-04-09T00:12:05;31.27;;;19.92;;
45792;SDS011;31495;42.740;22.908;2023-04-09T00:13:04;31.00;;;19.92;;
45792;SDS011;31495;42.740;22.908;2023-04-09T00:14:04;32.17;;;18.55;;
45792;SDS011;31495;42.740;22.908;2023-04-09T00:15:04;31.45;;;19.10;;
45792;SDS011;31495;42.740;22.908;2023-04-09T00:16:04;30.35;;;17.95;;
45792;SDS011;31495;42.740;22.908;2023-04-09T00:17:04;31.30;;;18.13;;
45792;SDS011;31495;42.740;22.908;2023-04-09T00:18:03;27.80;;;17.75;;
45792;SDS011;31495;42.740;22.908;2023-04-09T00:19:02;26.50;;;17.15;;
45792;SDS011;31495;42.740;22.908;2023-04-09T00:20:02;31.05;;;18.80;;
45792;SDS011;31495;42.740;22.908;2023-04-09T00:21:02;32.80;;;18.38;;
45792;SDS011;31495;42.740;22.908;2023-04-09T00:22:01;35.20;;;20.20;;
45792;SDS011;31495;42.740;22.908;2023-04-09T00:23:01;37.40;;;20.90;;
45792;SDS011;31495;42.740;22.908;2023-04-09T00:24:00;41.83;;;24.13;;
45792;SDS011;31495;42.740;22.908;2023-04-09T00:24:59;46.08;;;22.40;;
45792;SDS011;31495;42.740;22.908;2023-04-09T00:25:59;42.72;;;21.98;;
45792;SDS011;31495;42.740;22.908;2023-04-09T00:26:59;43.80;;;23.42;;
45792;SDS011;31495;42.740;22.908;2023-04-09T00:27:58;45.42;;;24.35;;
45792;SDS011;31495;42.740;22.908;2023-04-09T00:28:58;43.42;;;24.45;;
45792;SDS011;31495;42.740;22.908;2023-04-09T00:29:57;44.60;;;23.88;;
45792;SDS011;31495;42.740;22.908;2023-04-09T00:30:57;42.78;;;24.55;;
45792;SDS011;31495;42.740;22.908;2023-04-09T00:31:56;44.80;;;24.90;;
45792;SDS011;31495;42.740;22.908;2023-04-09T00:32:56;45.25;;;25.98;;
45792;SDS011;31495;42.740;22.908;2023-04-09T00:33:56;47.00;;;26.40;;
45792;SDS011;31495;42.740;22.908;2023-04-09T00:34:55;46.63;;;24.88;;
45792;SDS011;31495;42.740;22.908;2023-04-09T00:35:54;45.42;;;24.02;;
45792;SDS011;31495;42.740;22.908;2023-04-09T00:36:54;41.30;;;23.80;;
45792;SDS011;31495;42.740;22.908;2023-04-09T00:37:54;42.28;;;25.30;;
45792;SDS011;31495;42.740;22.908;2023-04-09T00:38:53;41.80;;;22.45;;
45792;SDS011;31495;42.740;22.908;2023-04-09T00:39:53;37.88;;;22.23;;
45792;SDS011;31495;42.740;22.908;2023-04-09T00:40:52;37.90;;;21.27;;
45792;SDS011;31495;42.740;22.908;2023-04-09T00:41:58;44.38;;;24.23;;
45792;SDS011;31495;42.740;22.908;2023-04-09T00:43:00;44.35;;;23.40;;
45792;SDS011;31495;42.740;22.908;2023-04-09T00:44:00;42.80;;;24.42;;
45792;SDS011;31495;42.740;22.908;2023-04-09T00:44:59;40.70;;;22.63;;
45792;SDS011;31495;42.740;22.908;2023-04-09T00:45:59;35.58;;;22.17;;
45792;SDS011;31495;42.740;22.908;2023-04-09T00:46:59;40.42;;;21.90;;
45792;SDS011;31495;42.740;22.908;2023-04-09T00:47:59;33.80;;;19.85;;
45792;SDS011;31495;42.740;22.908;2023-04-09T00:48:58;40.35;;;23.20;;
45792;SDS011;31495;42.740;22.908;2023-04-09T00:49:58;44.20;;;24.55;;
45792;SDS011;31495;42.740;22.908;2023-04-09T00:50:59;40.47;;;22.40;;
45792;SDS011;31495;42.740;22.908;2023-04-09T00:51:59;42.10;;;24.33;;
45792;SDS011;31495;42.740;22.908;2023-04-09T00:52:59;41.42;;;24.55;;
45792;SDS011;31495;42.740;22.908;2023-04-09T00:53:59;47.72;;;25.23;;
45792;SDS011;31495;42.740;22.908;2023-04-09T00:54:59;44.00;;;23.20;;
45792;SDS011;31495;42.740;22.908;2023-04-09T00:55:59;43.80;;;24.38;;
45792;SDS011;31495;42.740;22.908;2023-04-09T00:57:00;47.15;;;25.55;;
45792;SDS011;31495;42.740;22.908;2023-04-09T00:57:59;47.03;;;25.73;;
45792;SDS011;31495;42.740;22.908;2023-04-09T00:58:59;46.15;;;25.80;;
45792;SDS011;31495;42.740;22.908;2023-04-09T00:59:59;45.53;;;26.45;;
45792;SDS011;31495;42.740;22.908;2023-04-09T01:00:59;44.95;;;26.38;;
45792;SDS011;31495;42.740;22.908;2023-04-09T01:01:58;46.67;;;26.48;;
45792;SDS011;31495;42.740;22.908;2023-04-09T01:02:57;45.58;;;23.25;;
45792;SDS011;31495;42.740;22.908;2023-04-09T01:03:58;42.08;;;24.15;;
45792;SDS011;31495;42.740;22.908;2023-04-09T01:04:59;43.95;;;25.88;;
45792;SDS011;31495;42.740;22.908;2023-04-09T01:06:02;47.60;;;25.48;;
45792;SDS011;31495;42.740;22.908;2023-04-09T01:09:40;42.92;;;24.65;;
45792;SDS011;31495;42.740;22.908;2023-04-09T01:10:46;47.47;;;25.08;;
45792;SDS011;31495;42.740;22.908;2023-04-09T01:13:15;50.03;;;26.60;;
45792;SDS011;31495;42.740;22.908;2023-04-09T01:15:43;34.35;;;20.25;;
45792;SDS011;31495;42.740;22.908;2023-04-09T01:16:51;32.25;;;19.67;;
45792;SDS011;31495;42.740;22.908;2023-04-09T01:19:17;32.05;;;19.63;;
45792;SDS011;31495;42.740;22.908;2023-04-09T01:21:37;32.35;;;19.25;;
45792;SDS011;31495;42.740;22.908;2023-04-09T01:25:47;33.40;;;19.55;;
45792;SDS011;31495;42.740;22.908;2023-04-09T01:29:38;31.75;;;18.75;;
45792;SDS011;31495;42.740;22.908;2023-04-09T01:30:49;34.30;;;21.02;;
45792;SDS011;31495;42.740;22.908;2023-04-09T01:32:11;31.90;;;19.55;;
45792;SDS011;31495;42.740;22.908;2023-04-09T01:33:14;37.80;;;23.55;;
45792;SDS011;31495;42.740;22.908;2023-04-09T01:34:15;38.97;;;23.60;;
45792;SDS011;31495;42.740;22.908;2023-04-09T01:35:16;36.80;;;21.42;;
45792;SDS011;31495;42.740;22.908;2023-04-09T01:36:17;38.58;;;22.33;;
45792;SDS011;31495;42.740;22.908;2023-04-09T01:37:19;34.97;;;20.55;;
45792;SDS011;31495;42.740;22.908;2023-04-09T01:38:20;38.65;;;22.13;;
45792;SDS011;31495;42.740;22.908;2023-04-09T01:39:20;36.83;;;21.58;;
45792;SDS011;31495;42.740;22.908;2023-04-09T01:40:20;33.75;;;20.02;;
45792;SDS011;31495;42.740;22.908;2023-04-09T01:41:20;30.92;;;19.13;;
45792;SDS011;31495;42.740;22.908;2023-04-09T01:43:21;34.72;;;20.55;;
45792;SDS011;31495;42.740;22.908;2023-04-09T01:44:22;35.15;;;21.70;;
45792;SDS011;31495;42.740;22.908;2023-04-09T01:45:23;34.05;;;20.45;;
45792;SDS011;31495;42.740;22.908;2023-04-09T01:46:24;33.30;;;19.73;;
45792;SDS011;31495;42.740;22.908;2023-04-09T01:47:24;32.47;;;20.63;;
45792;SDS011;31495;42.740;22.908;2023-04-09T01:48:25;33.65;;;20.42;;
45792;SDS011;31495;42.740;22.908;2023-04-09T01:49:26;36.95;;;21.50;;
45792;SDS011;31495;42.740;22.908;2023-04-09T01:50:26;34.60;;;20.55;;
45792;SDS011;31495;42.740;22.908;2023-04-09T01:51:27;32.83;;;19.67;;
45792;SDS011;31495;42.740;22.908;2023-04-09T01:52:27;34.08;;;20.85;;
45792;SDS011;31495;42.740;22.908;2023-04-09T01:53:27;38.40;;;20.67;;
45792;SDS011;31495;42.740;22.908;2023-04-09T01:54:29;38.90;;;21.58;;
45792;SDS011;31495;42.740;22.908;2023-04-09T01:55:28;33.40;;;20.70;;
45792;SDS011;31495;42.740;22.908;2023-04-09T01:56:38;30.90;;;17.90;;
45792;SDS011;31495;42.740;22.908;2023-04-09T01:57:46;32.72;;;18.20;;
45792;SDS011;31495;42.740;22.908;2023-04-09T01:58:46;34.67;;;19.02;;
45792;SDS011;31495;42.740;22.908;2023-04-09T01:59:45;32.05;;;19.00;;
45792;SDS011;31495;42.740;22.908;2023-04-09T02:00:46;30.75;;;19.38;;
45792;SDS011;31495;42.740;22.908;2023-04-09T02:01:47;30.02;;;19.05;;
45792;SDS011;31495;42.740;22.908;2023-04-09T02:03:58;28.85;;;18.30;;
45792;SDS011;31495;42.740;22.908;2023-04-09T02:05:02;34.03;;;19.17;;
45792;SDS011;31495;42.740;22.908;2023-04-09T02:06:24;35.13;;;19.42;;
45792;SDS011;31495;42.740;22.908;2023-04-09T02:07:34;32.95;;;19.60;;
45792;SDS011;31495;42.740;22.908;2023-04-09T02:08:38;37.35;;;19.13;;
45792;SDS011;31495;42.740;22.908;2023-04-09T02:09:43;31.63;;;19.40;;
45792;SDS011;31495;42.740;22.908;2023-04-09T02:10:44;33.95;;;20.58;;
45792;SDS011;31495;42.740;22.908;2023-04-09T02:11:51;31.50;;;18.50;;
45792;SDS011;31495;42.740;22.908;2023-04-09T02:12:52;28.73;;;19.00;;
45792;SDS011;31495;42.740;22.908;2023-04-09T02:13:53;32.15;;;20.55;;
45792;SDS011;31495;42.740;22.908;2023-04-09T02:14:54;32.83;;;20.05;;
45792;SDS011;31495;42.740;22.908;2023-04-09T02:15:55;31.90;;;19.73;;
45792;SDS011;31495;42.740;22.908;2023-04-09T02:16:55;35.65;;;20.50;;
45792;SDS011;31495;42.740;22.908;2023-04-09T02:17:54;32.85;;;19.83;;
45792;SDS011;31495;42.740;22.908;2023-04-09T02:18:54;36.47;;;21.08;;
45792;SDS011;31495;42.740;22.908;2023-04-09T02:19:55;31.63;;;19.38;;
45792;SDS011;31495;42.740;22.908;2023-04-09T02:20:54;31.13;;;19.33;;
45792;SDS011;31495;42.740;22.908;2023-04-09T02:21:55;31.75;;;19.58;;
45792;SDS011;31495;42.740;22.908;2023-04-09T02:22:54;35.47;;;19.60;;
45792;SDS011;31495;42.740;22.908;2023-04-09T02:23:54;33.15;;;19.20;;
45792;SDS011;31495;42.740;22.908;2023-04-09T02:24:54;29.63;;;18.67;;
45792;SDS011;31495;42.740;22.908;2023-04-09T02:25:54;31.55;;;18.65;;
45792;SDS011;31495;42.740;22.908;2023-04-09T02:26:53;32.03;;;18.92;;
45792;SDS011;31495;42.740;22.908;2023-04-09T02:27:53;34.40;;;20.15;;
45792;SDS011;31495;42.740;22.908;2023-04-09T02:28:52;34.40;;;19.45;;
45792;SDS011;31495;42.740;22.908;2023-04-09T02:29:51;31.40;;;19.60;;
45792;SDS011;31495;42.740;22.908;2023-04-09T02:30:51;34.22;;;20.65;;
45792;SDS011;31495;42.740;22.908;2023-04-09T02:31:50;32.15;;;20.13;;
45792;SDS011;31495;42.740;22.908;2023-04-09T02:32:51;34.58;;;19.45;;
45792;SDS011;31495;42.740;22.908;2023-04-09T02:33:50;31.67;;;19.50;;
45792;SDS011;31495;42.740;22.908;2023-04-09T02:34:50;35.17;;;20.63;;
45792;SDS011;31495;42.740;22.908;2023-04-09T02:35:50;33.50;;;20.52;;
45792;SDS011;31495;42.740;22.908;2023-04-09T02:36:49;34.70;;;20.98;;
45792;SDS011;31495;42.740;22.908;2023-04-09T02:37:49;32.30;;;19.02;;
45792;SDS011;31495;42.740;22.908;2023-04-09T02:38:48;32.72;;;19.83;;
45792;SDS011;31495;42.740;22.908;2023-04-09T02:39:47;34.28;;;19.90;;
45792;SDS011;31495;42.740;22.908;2023-04-09T02:40:47;33.60;;;20.42;;
45792;SDS011;31495;42.740;22.908;2023-04-09T02:41:46;34.30;;;19.95;;
45792;SDS011;31495;42.740;22.908;2023-04-09T02:42:46;35.78;;;20.48;;
45792;SDS011;31495;42.740;22.908;2023-04-09T02:43:45;33.70;;;20.88;;
45792;SDS011;31495;42.740;22.908;2023-04-09T02:44:45;32.72;;;19.50;;
45792;SDS011;31495;42.740;22.908;2023-04-09T02:45:44;31.50;;;19.65;;
45792;SDS011;31495;42.740;22.908;2023-04-09T02:46:45;34.42;;;20.92;;
45792;SDS011;31495;42.740;22.908;2023-04-09T02:48:45;32.47;;;18.70;;
45792;SDS011;31495;42.740;22.908;2023-04-09T02:49:44;31.08;;;18.20;;
45792;SDS011;31495;42.740;22.908;2023-04-09T02:50:44;30.95;;;18.83;;
45792;SDS011;31495;42.740;22.908;2023-04-09T02:51:44;34.50;;;20.40;;
45792;SDS011;31495;42.740;22.908;2023-04-09T02:52:44;31.20;;;19.67;;
45792;SDS011;31495;42.740;22.908;2023-04-09T02:54:44;34.10;;;19.95;;
45792;SDS011;31495;42.740;22.908;2023-04-09T02:55:44;33.90;;;20.73;;
45792;SDS011;31495;42.740;22.908;2023-04-09T02:56:43;36.08;;;21.55;;
45792;SDS011;31495;42.740;22.908;2023-04-09T02:57:43;32.75;;;20.13;;
45792;SDS011;31495;42.740;22.908;2023-04-09T02:58:42;37.30;;;21.35;;
45792;SDS011;31495;42.740;22.908;2023-04-09T02:59:42;35.17;;;21.50;;
45792;SDS011;31495;42.740;22.908;2023-04-09T03:00:41;36.17;;;21.90;;
45792;SDS011;31495;42.740;22.908;2023-04-09T03:01:41;34.90;;;21.33;;
45792;SDS011;31495;42.740;22.908;2023-04-09T03:02:40;35.50;;;20.73;;
45792;SDS011;31495;42.740;22.908;2023-04-09T03:03:40;33.80;;;20.80;;
45792;SDS011;31495;42.740;22.908;2023-04-09T03:04:40;38.67;;;22.30;;
45792;SDS011;31495;42.740;22.908;2023-04-09T03:05:39;33.45;;;19.92;;
45792;SDS011;31495;42.740;22.908;2023-04-09T03:06:39;35.33;;;21.58;;
45792;SDS011;31495;42.740;22.908;2023-04-09T03:07:38;34.67;;;22.05;;
45792;SDS011;31495;42.740;22.908;2023-04-09T03:08:38;32.00;;;19.95;;
45792;SDS011;31495;42.740;22.908;2023-04-09T03:09:37;34.83;;;21.73;;
45792;SDS011;31495;42.740;22.908;2023-04-09T03:10:37;36.33;;;22.23;;
45792;SDS011;31495;42.740;22.908;2023-04-09T03:11:36;36.38;;;22.55;;
45792;SDS011;31495;42.740;22.908;2023-04-09T03:12:35;38.20;;;22.48;;
45792;SDS011;31495;42.740;22.908;2023-04-09T03:13:35;32.67;;;21.05;;
45792;SDS011;31495;42.740;22.908;2023-04-09T03:14:34;36.85;;;21.73;;
45792;SDS011;31495;42.740;22.908;2023-04-09T03:15:34;35.40;;;21.25;;
45792;SDS011;31495;42.740;22.908;2023-04-09T03:16:33;35.15;;;20.90;;
45792;SDS011;31495;42.740;22.908;2023-04-09T03:17:33;37.67;;;22.75;;
45792;SDS011;31495;42.740;22.908;2023-04-09T03:18:32;35.53;;;19.98;;
45792;SDS011;31495;42.740;22.908;2023-04-09T03:19:31;35.63;;;20.95;;
45792;SDS011;31495;42.740;22.908;2023-04-09T03:20:31;35.63;;;20.42;;
45792;SDS011;31495;42.740;22.908;2023-04-09T03:21:30;32.28;;;20.63;;
45792;SDS011;31495;42.740;22.908;2023-04-09T03:22:34;32.63;;;20.65;;
45792;SDS011;31495;42.740;22.908;2023-04-09T03:23:37;32.45;;;19.17;;
45792;SDS011;31495;42.740;22.908;2023-04-09T03:24:36;34.25;;;19.48;;
45792;SDS011;31495;42.740;22.908;2023-04-09T03:25:36;34.83;;;21.35;;
45792;SDS011;31495;42.740;22.908;2023-04-09T03:26:36;32.88;;;19.75;;
45792;SDS011;31495;42.740;22.908;2023-04-09T03:27:36;33.20;;;19.67;;
45792;SDS011;31495;42.740;22.908;2023-04-09T03:28:35;33.58;;;20.85;;
45792;SDS011;31495;42.740;22.908;2023-04-09T03:29:35;34.65;;;20.90;;
45792;SDS011;31495;42.740;22.908;2023-04-09T03:30:34;35.65;;;21.70;;
45792;SDS011;31495;42.740;22.908;2023-04-09T03:31:34;42.38;;;25.13;;
45792;SDS011;31495;42.740;22.908;2023-04-09T03:32:33;48.20;;;27.27;;
45792;SDS011;31495;42.740;22.908;2023-04-09T03:33:32;47.20;;;27.15;;
45792;SDS011;31495;42.740;22.908;2023-04-09T03:34:32;47.72;;;28.30;;
45792;SDS011;31495;42.740;22.908;2023-04-09T03:35:31;48.72;;;27.48;;
45792;SDS011;31495;42.740;22.908;2023-04-09T03:36:31;47.90;;;27.85;;
45792;SDS011;31495;42.740;22.908;2023-04-09T03:37:31;50.88;;;28.05;;
45792;SDS011;31495;42.740;22.908;2023-04-09T03:38:31;48.22;;;25.65;;
45792;SDS011;31495;42.740;22.908;2023-04-09T03:39:30;43.92;;;25.42;;
45792;SDS011;31495;42.740;22.908;2023-04-09T03:40:30;37.88;;;22.33;;
45792;SDS011;31495;42.740;22.908;2023-04-09T03:41:30;41.33;;;22.90;;
45792;SDS011;31495;42.740;22.908;2023-04-09T03:42:30;36.53;;;21.70;;
45792;SDS011;31495;42.740;22.908;2023-04-09T03:43:30;35.40;;;21.48;;
45792;SDS011;31495;42.740;22.908;2023-04-09T03:44:29;34.55;;;20.50;;
45792;SDS011;31495;42.740;22.908;2023-04-09T03:45:29;32.58;;;19.50;;
45792;SDS011;31495;42.740;22.908;2023-04-09T03:46:29;35.28;;;19.75;;
45792;SDS011;31495;42.740;22.908;2023-04-09T03:47:28;34.08;;;21.33;;
45792;SDS011;31495;42.740;22.908;2023-04-09T03:48:28;34.55;;;20.60;;
45792;SDS011;31495;42.740;22.908;2023-04-09T03:49:27;36.92;;;21.83;;
45792;SDS011;31495;42.740;22.908;2023-04-09T03:50:27;37.40;;;21.65;;
45792;SDS011;31495;42.740;22.908;2023-04-09T03:51:26;32.83;;;20.02;;
45792;SDS011;31495;42.740;22.908;2023-04-09T03:52:26;35.08;;;21.67;;
45792;SDS011;31495;42.740;22.908;2023-04-09T03:53:25;37.45;;;22.85;;
45792;SDS011;31495;42.740;22.908;2023-04-09T03:54:27;38.33;;;21.38;;
45792;SDS011;31495;42.740;22.908;2023-04-09T03:55:30;35.22;;;21.70;;
45792;SDS011;31495;42.740;22.908;2023-04-09T03:56:30;37.00;;;22.15;;
45792;SDS011;31495;42.740;22.908;2023-04-09T03:57:29;34.53;;;20.92;;
45792;SDS011;31495;42.740;22.908;2023-04-09T03:58:28;39.50;;;23.23;;
45792;SDS011;31495;42.740;22.908;2023-04-09T03:59:28;37.60;;;23.48;;
45792;SDS011;31495;42.740;22.908;2023-04-09T04:00:27;33.50;;;20.88;;
45792;SDS011;31495;42.740;22.908;2023-04-09T04:01:27;31.00;;;17.98;;
45792;SDS011;31495;42.740;22.908;2023-04-09T04:02:26;31.48;;;18.40;;
45792;SDS011;31495;42.740;22.908;2023-04-09T04:03:28;35.15;;;21.10;;
45792;SDS011;31495;42.740;22.908;2023-04-09T04:04:28;31.15;;;18.92;;
45792;SDS011;31495;42.740;22.908;2023-04-09T04:05:27;31.30;;;19.65;;
45792;SDS011;31495;42.740;22.908;2023-04-09T04:06:27;30.63;;;19.83;;
45792;SDS011;31495;42.740;22.908;2023-04-09T04:07:26;27.88;;;19.10;;
45792;SDS011;31495;42.740;22.908;2023-04-09T04:08:26;37.00;;;21.27;;
45792;SDS011;31495;42.740;22.908;2023-04-09T04:09:25;29.42;;;19.00;;
45792;SDS011;31495;42.740;22.908;2023-04-09T04:10:24;32.53;;;20.27;;
45792;SDS011;31495;42.740;22.908;2023-04-09T04:11:24;33.60;;;20.63;;
45792;SDS011;31495;42.740;22.908;2023-04-09T04:12:23;33.75;;;20.00;;
45792;SDS011;31495;42.740;22.908;2023-04-09T04:13:23;36.35;;;21.48;;
45792;SDS011;31495;42.740;22.908;2023-04-09T04:14:22;32.90;;;20.45;;
45792;SDS011;31495;42.740;22.908;2023-04-09T04:15:22;31.88;;;18.95;;
45792;SDS011;31495;42.740;22.908;2023-04-09T04:16:22;30.88;;;20.20;;
45792;SDS011;31495;42.740;22.908;2023-04-09T04:17:21;31.35;;;20.45;;
45792;SDS011;31495;42.740;22.908;2023-04-09T04:18:21;28.95;;;19.27;;
45792;SDS011;31495;42.740;22.908;2023-04-09T04:19:20;31.05;;;19.75;;
45792;SDS011;31495;42.740;22.908;2023-04-09T04:20:19;34.95;;;20.23;;
45792;SDS011;31495;42.740;22.908;2023-04-09T04:21:19;35.00;;;20.67;;
45792;SDS011;31495;42.740;22.908;2023-04-09T04:22:18;28.15;;;18.23;;
45792;SDS011;31495;42.740;22.908;2023-04-09T04:23:18;26.80;;;16.10;;
45792;SDS011;31495;42.740;22.908;2023-04-09T04:24:17;27.65;;;18.08;;
45792;SDS011;31495;42.740;22.908;2023-04-09T04:25:17;33.75;;;19.83;;
45792;SDS011;31495;42.740;22.908;2023-04-09T04:26:16;34.83;;;19.67;;
45792;SDS011;31495;42.740;22.908;2023-04-09T04:27:15;33.20;;;18.83;;
45792;SDS011;31495;42.740;22.908;2023-04-09T04:28:15;33.60;;;20.90;;
45792;SDS011;31495;42.740;22.908;2023-04-09T04:29:15;35.95;;;22.02;;
45792;SDS011;31495;42.740;22.908;2023-04-09T04:30:14;30.95;;;18.85;;
45792;SDS011;31495;42.740;22.908;2023-04-09T04:31:14;45.85;;;25.23;;
45792;SDS011;31495;42.740;22.908;2023-04-09T04:32:13;45.42;;;25.85;;
45792;SDS011;31495;42.740;22.908;2023-04-09T04:33:13;46.95;;;26.65;;
45792;SDS011;31495;42.740;22.908;2023-04-09T04:34:12;51.08;;;30.13;;
45792;SDS011;31495;42.740;22.908;2023-04-09T04:35:11;36.90;;;23.30;;
45792;SDS011;31495;42.740;22.908;2023-04-09T04:36:12;35.85;;;23.25;;
45792;SDS011;31495;42.740;22.908;2023-04-09T04:37:12;32.92;;;21.08;;
45792;SDS011;31495;42.740;22.908;2023-04-09T04:38:12;39.33;;;22.40;;
45792;SDS011;31495;42.740;22.908;2023-04-09T04:39:11;31.92;;;20.17;;
45792;SDS011;31495;42.740;22.908;2023-04-09T04:40:11;32.97;;;21.27;;
45792;SDS011;31495;42.740;22.908;2023-04-09T04:41:10;34.83;;;20.50;;
45792;SDS011;31495;42.740;22.908;2023-04-09T04:42:10;32.00;;;19.75;;
45792;SDS011;31495;42.740;22.908;2023-04-09T04:43:09;35.47;;;22.75;;
45792;SDS011;31495;42.740;22.908;2023-04-09T04:44:09;33.85;;;21.30;;
45792;SDS011;31495;42.740;22.908;2023-04-09T04:45:08;37.05;;;22.42;;
45792;SDS011;31495;42.740;22.908;2023-04-09T04:46:08;34.90;;;21.48;;
45792;SDS011;31495;42.740;22.908;2023-04-09T04:47:07;31.40;;;20.73;;
45792;SDS011;31495;42.740;22.908;2023-04-09T04:48:07;32.35;;;20.95;;
45792;SDS011;31495;42.740;22.908;2023-04-09T04:49:06;35.47;;;22.55;;
45792;SDS011;31495;42.740;22.908;2023-04-09T04:50:06;32.55;;;21.73;;
45792;SDS011;31495;42.740;22.908;2023-04-09T04:51:06;35.13;;;22.70;;
45792;SDS011;31495;42.740;22.908;2023-04-09T04:52:06;34.75;;;22.30;;
45792;SDS011;31495;42.740;22.908;2023-04-09T04:53:06;34.38;;;20.80;;
45792;SDS011;31495;42.740;22.908;2023-04-09T04:54:05;34.22;;;20.98;;
45792;SDS011;31495;42.740;22.908;2023-04-09T04:55:05;32.85;;;20.15;;
45792;SDS011;31495;42.740;22.908;2023-04-09T04:56:05;33.47;;;20.20;;
45792;SDS011;31495;42.740;22.908;2023-04-09T04:57:04;29.15;;;19.33;;
45792;SDS011;31495;42.740;22.908;2023-04-09T04:58:04;30.40;;;19.40;;
45792;SDS011;31495;42.740;22.908;2023-04-09T04:59:03;30.85;;;19.48;;
45792;SDS011;31495;42.740;22.908;2023-04-09T05:00:03;34.22;;;18.92;;
45792;SDS011;31495;42.740;22.908;2023-04-09T05:01:03;30.10;;;19.25;;
45792;SDS011;31495;42.740;22.908;2023-04-09T05:02:02;27.90;;;19.10;;
45792;SDS011;31495;42.740;22.908;2023-04-09T05:03:02;28.67;;;19.48;;
45792;SDS011;31495;42.740;22.908;2023-04-09T05:04:02;30.95;;;20.00;;
45792;SDS011;31495;42.740;22.908;2023-04-09T05:05:02;27.65;;;17.40;;
45792;SDS011;31495;42.740;22.908;2023-04-09T05:06:01;27.75;;;19.35;;
45792;SDS011;31495;42.740;22.908;2023-04-09T05:07:01;27.75;;;18.45;;
45792;SDS011;31495;42.740;22.908;2023-04-09T05:08:00;28.23;;;17.95;;
45792;SDS011;31495;42.740;22.908;2023-04-09T05:09:00;39.20;;;23.60;;
45792;SDS011;31495;42.740;22.908;2023-04-09T05:09:59;26.52;;;16.52;;
45792;SDS011;31495;42.740;22.908;2023-04-09T05:10:59;27.58;;;16.10;;
45792;SDS011;31495;42.740;22.908;2023-04-09T05:11:58;28.00;;;15.50;;
45792;SDS011;31495;42.740;22.908;2023-04-09T05:12:59;24.55;;;15.65;;
45792;SDS011;31495;42.740;22.908;2023-04-09T05:13:58;26.00;;;16.27;;
45792;SDS011;31495;42.740;22.908;2023-04-09T05:14:58;26.48;;;16.40;;
45792;SDS011;31495;42.740;22.908;2023-04-09T05:15:58;24.23;;;15.20;;
45792;SDS011;31495;42.740;22.908;2023-04-09T05:16:57;26.60;;;16.40;;
45792;SDS011;31495;42.740;22.908;2023-04-09T05:17:56;25.88;;;15.98;;
45792;SDS011;31495;42.740;22.908;2023-04-09T05:18:56;26.27;;;15.73;;
45792;SDS011;31495;42.740;22.908;2023-04-09T05:19:56;24.15;;;16.23;;
45792;SDS011;31495;42.740;22.908;2023-04-09T05:20:56;23.63;;;15.23;;
45792;SDS011;31495;42.740;22.908;2023-04-09T05:21:56;21.45;;;13.70;;
45792;SDS011;31495;42.740;22.908;2023-04-09T05:22:55;24.27;;;16.50;;
45792;SDS011;31495;42.740;22.908;2023-04-09T05:23:55;22.23;;;15.00;;
45792;SDS011;31495;42.740;22.908;2023-04-09T05:24:55;25.75;;;15.38;;
45792;SDS011;31495;42.740;22.908;2023-04-09T05:25:54;24.30;;;15.63;;
45792;SDS011;31495;42.740;22.908;2023-04-09T05:26:54;23.10;;;14.68;;
45792;SDS011;31495;42.740;22.908;2023-04-09T05:27:54;22.90;;;14.20;;
45792;SDS011;31495;42.740;22.908;2023-04-09T05:28:54;19.52;;;13.35;;
45792;SDS011;31495;42.740;22.908;2023-04-09T05:29:54;22.25;;;14.40;;
45792;SDS011;31495;42.740;22.908;2023-04-09T05:30:53;26.58;;;15.10;;
45792;SDS011;31495;42.740;22.908;2023-04-09T05:31:53;22.48;;;14.95;;
45792;SDS011;31495;42.740;22.908;2023-04-09T05:32:52;23.95;;;15.02;;
45792;SDS011;31495;42.740;22.908;2023-04-09T05:33:52;24.35;;;15.88;;
45792;SDS011;31495;42.740;22.908;2023-04-09T05:34:52;24.70;;;14.82;;
45792;SDS011;31495;42.740;22.908;2023-04-09T05:35:51;23.23;;;14.45;;
45792;SDS011;31495;42.740;22.908;2023-04-09T05:36:51;24.00;;;15.32;;
45792;SDS011;31495;42.740;22.908;2023-04-09T05:37:51;38.60;;;22.05;;
45792;SDS011;31495;42.740;22.908;2023-04-09T05:38:50;37.17;;;22.55;;
45792;SDS011;31495;42.740;22.908;2023-04-09T05:39:49;48.72;;;34.00;;
45792;SDS011;31495;42.740;22.908;2023-04-09T05:40:49;47.10;;;32.33;;
45792;SDS011;31495;42.740;22.908;2023-04-09T05:41:49;31.50;;;22.15;;
45792;SDS011;31495;42.740;22.908;2023-04-09T05:42:50;23.65;;;15.55;;
45792;SDS011;31495;42.740;22.908;2023-04-09T05:43:50;28.65;;;17.25;;
45792;SDS011;31495;42.740;22.908;2023-04-09T05:44:49;26.15;;;16.30;;
45792;SDS011;31495;42.740;22.908;2023-04-09T05:45:49;26.90;;;15.75;;
45792;SDS011;31495;42.740;22.908;2023-04-09T05:46:48;24.15;;;15.90;;
45792;SDS011;31495;42.740;22.908;2023-04-09T05:47:48;24.73;;;15.90;;
45792;SDS011;31495;42.740;22.908;2023-04-09T05:48:47;24.52;;;15.60;;
45792;SDS011;31495;42.740;22.908;2023-04-09T05:49:47;22.98;;;14.52;;
45792;SDS011;31495;42.740;22.908;2023-04-09T05:50:49;21.00;;;14.52;;
45792;SDS011;31495;42.740;22.908;2023-04-09T05:51:50;24.25;;;15.90;;
45792;SDS011;31495;42.740;22.908;2023-04-09T05:52:50;23.00;;;14.77;;
45792;SDS011;31495;42.740;22.908;2023-04-09T05:53:49;21.83;;;14.40;;
45792;SDS011;31495;42.740;22.908;2023-04-09T05:54:49;24.15;;;14.80;;
45792;SDS011;31495;42.740;22.908;2023-04-09T05:55:49;23.45;;;15.93;;
45792;SDS011;31495;42.740;22.908;2023-04-09T05:56:49;25.33;;;15.48;;
45792;SDS011;31495;42.740;22.908;2023-04-09T05:57:50;28.65;;;16.20;;
45792;SDS011;31495;42.740;22.908;2023-04-09T05:58:51;24.75;;;14.88;;
45792;SDS011;31495;42.740;22.908;2023-04-09T05:59:51;26.13;;;16.30;;
45792;SDS011;31495;42.740;22.908;2023-04-09T06:00:50;24.58;;;15.30;;
45792;SDS011;31495;42.740;22.908;2023-04-09T06:01:50;29.13;;;17.63;;
45792;SDS011;31495;42.740;22.908;2023-04-09T06:02:49;25.75;;;16.45;;
45792;SDS011;31495;42.740;22.908;2023-04-09T06:03:49;26.45;;;17.08;;
45792;SDS011;31495;42.740;22.908;2023-04-09T06:04:48;27.70;;;17.40;;